MDT,Max TemperatureF,Mean TemperatureF,Min TemperatureF,Max Dew PointF,MeanDew PointF,Min DewpointF,Max Humidity, Mean Humidity, Min Humidity, Max Sea Level PressureIn, Mean Sea Level PressureIn, Min Sea Level PressureIn, Max VisibilityMiles, Mean VisibilityMiles, Min VisibilityMiles, Max Wind SpeedMPH, Mean Wind SpeedMPH, Max Gust SpeedMPH,PrecipitationIn, CloudCover, Events, WindDirDegrees
2013-10-1,72,54,35,31,27,22,70,44,17,30.01,29.89,29.79,10,10,10,17,7,22,0.00,0,,239
2013-10-2,69,51,33,29,24,18,75,46,16,29.99,29.85,29.74,10,10,9,13,5,16,0.00,0,,204
2013-10-3,65,48,30,32,27,19,100,59,18,29.94,29.72,29.52,10,8,1,26,9,36,0.06,3,Snow,219
2013-10-4,35,30,24,30,26,20,100,85,69,30.32,30.04,29.71,10,5,1,18,6,25,0.11,7,Snow,357
2013-10-5,45,34,23,25,22,16,96,64,31,30.48,30.36,30.28,10,6,2,13,5,16,0.01,5,Snow,331
2013-10-6,57,38,19,30,23,16,84,57,29,30.49,30.37,30.25,10,10,10,12,5,17,0.00,0,,242
2013-10-7,67,47,26,30,24,20,85,51,16,30.32,30.12,29.96,10,10,10,10,5,14,0.00,0,,224
2013-10-8,65,48,30,29,25,16,75,46,16,29.93,29.81,29.68,10,10,10,17,6,23,0.00,0,,210
2013-10-9,63,47,31,30,26,19,85,52,19,29.84,29.74,29.65,10,10,10,14,6,22,0.00,1,,218
2013-10-10,50,41,32,37,34,26,96,71,45,29.91,29.70,29.53,10,9,2,29,5,36,0.15,6,Rain-Snow,190
2013-10-11,43,37,30,36,33,30,100,85,70,30.09,29.95,29.71,10,9,4,13,3,20,0.07,7,Rain-Snow,290
2013-10-12,51,38,25,29,25,23,92,64,36,30.17,30.07,29.98,10,10,10,13,4,16,0.00,0,,208
2013-10-13,61,44,27,37,28,23,92,58,24,30.06,29.88,29.75,10,10,10,26,10,36,T,4,Rain-Thunderstorm,158
2013-10-14,43,37,31,38,34,30,100,87,73,30.20,30.00,29.74,10,8,1,20,5,26,0.00,8,Rain-Snow-Thunderstorm,346
2013-10-15,43,37,30,32,30,27,100,82,64,30.20,30.11,30.02,10,8,2,12,3,15,0.00,8,Snow,343
2013-10-16,43,34,25,28,24,18,92,66,39,30.19,30.10,30.03,10,10,5,14,6,20,T,5,Snow,340
2013-10-17,47,33,19,24,19,15,84,59,33,30.18,30.05,29.91,10,10,10,14,5,22,T,2,,297
2013-10-18,41,31,21,30,24,13,100,69,37,30.27,30.11,29.94,10,6,1,17,7,25,0.04,6,Snow,355
2013-10-19,50,34,18,22,17,14,84,55,26,30.28,30.17,30.06,10,10,10,15,5,21,0.00,0,,243
2013-10-20,49,35,20,27,21,17,84,58,31,30.07,29.99,29.91,10,10,10,16,6,22,T,2,,302
2013-10-21,50,36,21,31,25,16,100,63,26,30.25,30.15,29.97,10,8,1,16,6,22,0.02,3,Snow,217
2013-10-22,58,41,24,26,22,19,81,53,24,30.33,30.21,30.10,10,10,10,13,6,16,0.00,0,,248
2013-10-23,61,43,25,25,22,14,81,49,16,30.25,30.14,30.03,10,10,10,12,6,17,0.00,0,,244
2013-10-24,62,44,26,25,22,17,75,46,17,30.23,30.12,30.02,10,10,10,13,5,16,0.00,0,,250
2013-10-25,57,42,26,27,23,20,81,53,24,30.23,30.14,30.06,10,10,10,13,5,18,0.00,3,,247
2013-10-26,58,42,26,26,22,17,85,53,21,30.32,30.22,30.15,10,10,10,13,5,16,0.00,0,,241
2013-10-27,57,41,25,23,20,14,75,47,19,30.15,29.98,29.79,10,10,10,15,5,25,0.00,0,,210
2013-10-28,57,43,29,27,20,14,75,47,19,29.77,29.69,29.60,10,10,10,41,12,52,0.00,2,,174
2013-10-29,48,39,30,32,27,14,100,63,26,29.92,29.79,29.62,10,5,1,25,9,31,0.35,6,Rain-Snow,317
2013-10-30,37,31,24,30,26,24,100,85,69,29.99,29.91,29.76,10,8,1,15,4,18,0.01,7,Snow,326
2013-10-31,32,30,27,28,26,23,100,83,66,30.11,30.03,29.91,10,8,2,13,3,18,0.02,8,Snow,351